Current | Forecast
Updated: 2:30 AM JST on April 23, 2018
Observed at Chitose AB, Japan
Temperature 39°F
Windchill 34°F
Humidity 87%
Dew Point 36°F
Wind SSE at 7 mph
Pressure 30.27 in (Steady)
Conditions Scattered Clouds
Visibility 6.2 miles
UV 0 out of 16
Clouds (FEW) : 1000 ft
Scattered Clouds (SCT) : 1700 ft
Yesterday's Maximum 61°F
Yesterday's Minimum 39°F approx.
Yesterday's Heating Degree Days 15 approx.
Sunrise4:40 AM JST
Sunset6:24 PM JST
Moon Rise10:47 AM JST
Moon Set12:50 AM JST
Moon PhaseMoon Phase
Waxing Crescent
Raw METARMETAR RJCC 221730Z 15006KT 9999 FEW010 SCT017 04/02 Q1025 RMK 1ST010 4ST017 A3028


Monday
. High: 64° F.
Tuesday
. High: 62° F.
Wednesday
. High: 62° F.
Thursday
. High: 62° F.
Friday
. High: 60° F.
Saturday
. High: 59° F.
Sunday
. High: 51° F.
Monday
. High: 55° F.

Units: English | Metric

Find the Weather for any City, State or Zipcode, or Country:

U.S. State List | Severe Weather | Tropical Storms | Ski Conditions
United States | Canada | Central America | South America | Asia | Europe | Australia | Africa | Islands

Weather Underground

© Copyright 2018
The Weather Company, LLC